createdAt,value
2022-10-01T00:00:47.312Z,100978.00
2022-10-01T00:03:36.186Z,100964.78
2022-10-01T00:06:19.328Z,100988.50
2022-10-01T00:08:49.073Z,100975.00
2022-10-01T00:11:25.171Z,100949.91
2022-10-01T00:13:53.544Z,100916.63
2022-10-01T00:16:24.473Z,100994.94
2022-10-01T00:19:11.259Z,100974.50
2022-10-01T00:21:51.699Z,100990.97
2022-10-01T00:24:39.245Z,100999.06
2022-10-01T00:27:42.193Z,100997.31
2022-10-01T00:30:23.012Z,100922.97
2022-10-01T00:32:53.591Z,101032.47
2022-10-01T00:35:22.380Z,100939.78
2022-10-01T00:37:53.002Z,100962.94
2022-10-01T00:40:21.553Z,100937.66
2022-10-01T00:42:48.664Z,101000.50
2022-10-01T00:45:16.435Z,101001.66
2022-10-01T00:47:58.060Z,101029.31
2022-10-01T00:50:34.863Z,100996.91
2022-10-01T00:53:07.011Z,101031.94
2022-10-01T00:55:58.314Z,100991.50
2022-10-01T00:59:01.193Z,101041.06
2022-10-01T01:02:02.265Z,100982.88
2022-10-01T01:04:55.791Z,101050.22
2022-10-01T01:07:22.711Z,101018.06
2022-10-01T01:09:52.096Z,100955.97
2022-10-01T01:12:34.359Z,101046.69
2022-10-01T01:15:12.910Z,101019.25
2022-10-01T01:18:18.205Z,101009.47
2022-10-01T01:21:20.207Z,101042.69
2022-10-01T01:24:26.221Z,100962.53
2022-10-01T01:27:42.397Z,101036.94
2022-10-01T01:30:23.147Z,101037.91
2022-10-01T01:33:03.283Z,100974.81
2022-10-01T01:36:04.669Z,100977.38
2022-10-01T01:38:38.594Z,101037.03
2022-10-01T01:41:06.884Z,101012.31
2022-10-01T01:43:38.518Z,101032.75
2022-10-01T01:46:08.813Z,101031.63
2022-10-01T01:48:39.180Z,100965.50
2022-10-01T01:51:14.226Z,100977.81
2022-10-01T01:53:41.680Z,100987.47
2022-10-01T01:56:08.684Z,100950.72
2022-10-01T01:58:55.239Z,100989.59
2022-10-01T02:01:58.368Z,101034.38
2022-10-01T02:04:57.572Z,100981.72
2022-10-01T02:07:43.016Z,101035.34
2022-10-01T02:10:19.027Z,101039.91
2022-10-01T02:13:01.662Z,100974.78
2022-10-01T02:15:40.588Z,101029.91
2022-10-01T02:18:36.244Z,101022.66
2022-10-01T02:21:26.700Z,101031.31
2022-10-01T02:24:16.261Z,101016.38
2022-10-01T02:27:00.107Z,101026.31
2022-10-01T02:29:28.853Z,101033.16
2022-10-01T02:31:57.291Z,100988.72
2022-10-01T02:34:29.116Z,101023.03
2022-10-01T02:37:19.235Z,101019.34
2022-10-01T02:40:03.046Z,100999.31
2022-10-01T02:42:31.060Z,101003.28
2022-10-01T02:45:02.524Z,101016.72
2022-10-01T02:47:51.145Z,100956.69
2022-10-01T02:50:18.114Z,100927.47
2022-10-01T02:52:55.231Z,100979.06
2022-10-01T02:55:35.906Z,101005.69
2022-10-01T02:58:02.884Z,100939.44
2022-10-01T03:00:50.283Z,100959.81
2022-10-01T03:03:51.243Z,100975.97
2022-10-01T03:06:52.565Z,101005.41
2022-10-01T03:09:36.754Z,101015.47
2022-10-01T03:12:04.040Z,100975.94
2022-10-01T03:14:32.458Z,101025.06
2022-10-01T03:16:59.696Z,101020.53
2022-10-01T03:19:46.313Z,101018.69
2022-10-01T03:22:26.950Z,101021.13
2022-10-01T03:25:14.278Z,101031.59
2022-10-01T03:27:59.206Z,100849.66
2022-10-01T03:30:26.969Z,100980.69
2022-10-01T03:32:53.890Z,101017.31
2022-10-01T03:35:21.030Z,101034.78
2022-10-01T03:37:47.998Z,101054.41
2022-10-01T03:40:14.946Z,101004.50
2022-10-01T03:42:41.798Z,100989.28
2022-10-01T03:45:09.072Z,100984.03
2022-10-01T03:47:35.903Z,101060.16
2022-10-01T03:50:23.285Z,101053.53
2022-10-01T03:53:03.851Z,101042.97
2022-10-01T03:55:31.315Z,101055.56
2022-10-01T03:57:58.653Z,101019.22
2022-10-01T04:00:45.306Z,101015.78
2022-10-01T04:03:46.331Z,101023.84
2022-10-01T04:06:47.337Z,101028.03
2022-10-01T04:09:48.318Z,101047.31
2022-10-01T04:12:28.806Z,101041.88
2022-10-01T04:14:55.611Z,101025.94
2022-10-01T04:17:22.577Z,101004.84
2022-10-01T04:20:09.349Z,101046.03
2022-10-01T04:23:10.300Z,101030.53
2022-10-01T04:26:17.355Z,101044.59
2022-10-01T04:28:57.960Z,101062.28
2022-10-01T04:31:24.892Z,101038.91
2022-10-01T04:33:56.387Z,100941.25
2022-10-01T04:36:24.663Z,100990.41
2022-10-01T04:39:00.924Z,101070.53
2022-10-01T04:41:31.024Z,100964.81
2022-10-01T04:44:00.106Z,101046.66
2022-10-01T04:46:29.057Z,101053.06
2022-10-01T04:49:09.306Z,101016.19
2022-10-01T04:51:50.004Z,101059.81
2022-10-01T04:54:16.851Z,101012.72
2022-10-01T04:56:43.821Z,100965.72
2022-10-01T04:59:10.686Z,101024.69
2022-10-01T05:01:57.400Z,101031.78
2022-10-01T05:04:58.344Z,101044.47
2022-10-01T05:07:40.123Z,100977.81
2022-10-01T05:10:15.668Z,101068.97
2022-10-01T05:12:42.906Z,101046.63
2022-10-01T05:15:10.351Z,101005.00
2022-10-01T05:17:37.214Z,101030.56
2022-10-01T05:20:33.606Z,101027.63
2022-10-01T05:23:34.344Z,101056.41
2022-10-01T05:26:15.139Z,101063.66
2022-10-01T05:28:44.525Z,101101.63
2022-10-01T05:31:13.086Z,101105.16
2022-10-01T05:33:40.589Z,101090.00
2022-10-01T05:36:07.595Z,101028.00
2022-10-01T05:38:37.331Z,101047.94
2022-10-01T05:41:05.303Z,101018.03
2022-10-01T05:43:32.566Z,101028.34
2022-10-01T05:46:05.431Z,101045.94
2022-10-01T05:48:37.014Z,101027.47
2022-10-01T05:51:08.522Z,101093.66
2022-10-01T05:53:39.257Z,101089.97
2022-10-01T05:56:07.684Z,101062.69
2022-10-01T05:58:54.401Z,101094.06
2022-10-01T06:01:55.451Z,101119.75
2022-10-01T06:04:56.386Z,101084.00
2022-10-01T06:07:57.385Z,101092.63
2022-10-01T06:10:58.431Z,101122.91
2022-10-01T06:13:40.260Z,101132.88
2022-10-01T06:16:07.276Z,101043.34
2022-10-01T06:18:55.370Z,101125.78
2022-10-01T06:21:36.356Z,101104.72
2022-10-01T06:24:23.415Z,101120.66
2022-10-01T06:27:04.003Z,101104.41
2022-10-01T06:29:30.822Z,101089.78
2022-10-01T06:31:57.653Z,101145.16
2022-10-01T06:34:26.380Z,101094.88
2022-10-01T06:37:13.387Z,101118.41
2022-10-01T06:39:54.025Z,101059.41
2022-10-01T06:42:41.403Z,101124.53
2022-10-01T06:45:21.933Z,101130.94
2022-10-01T06:47:54.586Z,101147.50
2022-10-01T06:50:22.860Z,101106.28
2022-10-01T06:52:50.582Z,101158.69
2022-10-01T06:55:26.430Z,101114.28
2022-10-01T06:57:59.355Z,101098.44
2022-10-01T07:00:42.645Z,101138.53
2022-10-01T07:03:44.422Z,101133.69
2022-10-01T07:06:45.417Z,101084.22
2022-10-01T07:09:49.424Z,101161.84
2022-10-01T07:12:30.110Z,101154.66
2022-10-01T07:14:57.344Z,101105.63
2022-10-01T07:17:24.711Z,101091.56
2022-10-01T07:19:51.642Z,101157.34
2022-10-01T07:22:19.540Z,101178.13
2022-10-01T07:25:06.446Z,101162.50
2022-10-01T07:27:46.997Z,101155.81
2022-10-01T07:30:13.900Z,101133.00
2022-10-01T07:32:44.999Z,101171.84
2022-10-01T07:35:12.018Z,101155.53
2022-10-01T07:37:38.981Z,101108.38
2022-10-01T07:40:26.428Z,101187.22
2022-10-01T07:43:06.985Z,101145.66
2022-10-01T07:45:33.896Z,101170.38
2022-10-01T07:48:02.613Z,101179.25
2022-10-01T07:50:30.707Z,101101.94
2022-10-01T07:52:59.130Z,101180.81
2022-10-01T07:55:28.697Z,101205.94
2022-10-01T07:57:58.277Z,101198.06
2022-10-01T08:00:40.479Z,101183.38
2022-10-01T08:03:41.446Z,101127.50
2022-10-01T08:06:20.868Z,101133.03
2022-10-01T08:08:51.773Z,101185.66
2022-10-01T08:11:18.771Z,101207.75
2022-10-01T08:13:48.571Z,101171.97
2022-10-01T08:16:36.469Z,101197.63
2022-10-01T08:19:37.465Z,101194.53
2022-10-01T08:22:18.153Z,101201.94
2022-10-01T08:25:05.490Z,101201.88
2022-10-01T08:27:46.120Z,101209.28
2022-10-01T08:30:13.046Z,101096.25
2022-10-01T08:32:40.056Z,101203.06
2022-10-01T08:35:07.516Z,101191.97
2022-10-01T08:37:34.954Z,101149.88
2022-10-01T08:40:02.040Z,101215.69
2022-10-01T08:42:54.718Z,101207.56
2022-10-01T08:45:45.420Z,101206.59
2022-10-01T08:48:45.465Z,101123.09
2022-10-01T08:52:03.659Z,101203.41
2022-10-01T08:54:48.821Z,101211.56
2022-10-01T08:57:23.720Z,101212.59
2022-10-01T09:00:00.843Z,101188.13
2022-10-01T09:02:56.472Z,101210.09
2022-10-01T09:05:51.297Z,101212.31
2022-10-01T09:08:51.944Z,101213.44
2022-10-01T09:11:43.878Z,101190.91
2022-10-01T09:14:43.876Z,101218.41
2022-10-01T09:17:52.239Z,101217.59
2022-10-01T09:21:01.475Z,101215.53
2022-10-01T09:24:23.499Z,101215.94
2022-10-01T09:27:36.493Z,101204.75
2022-10-01T09:30:21.791Z,101204.03
2022-10-01T09:33:12.576Z,101183.44
2022-10-01T09:35:56.846Z,101213.56
2022-10-01T09:38:23.824Z,101201.94
2022-10-01T09:40:55.908Z,101185.09
2022-10-01T09:43:26.749Z,101186.28
2022-10-01T09:45:53.711Z,101167.16
2022-10-01T09:48:34.731Z,101173.59
2022-10-01T09:51:08.779Z,101108.03
2022-10-01T09:53:41.386Z,101179.22
2022-10-01T09:56:18.496Z,101161.16
2022-10-01T09:58:50.702Z,101177.81
2022-10-01T10:01:51.858Z,101136.44
2022-10-01T10:04:52.514Z,101122.19
2022-10-01T10:07:35.018Z,101165.78
2022-10-01T10:10:12.122Z,101160.38
2022-10-01T10:12:42.082Z,101150.47
2022-10-01T10:15:16.499Z,101159.31
2022-10-01T10:17:46.457Z,101122.47
2022-10-01T10:20:30.125Z,101174.09
2022-10-01T10:23:38.529Z,101141.56
2022-10-01T10:26:49.552Z,101168.66
2022-10-01T10:29:35.275Z,101158.59
2022-10-01T10:32:15.298Z,101114.56
2022-10-01T10:34:47.067Z,101143.78
2022-10-01T10:37:41.565Z,101000.53
2022-10-01T10:40:29.885Z,101103.16
2022-10-01T10:42:59.313Z,101137.19
2022-10-01T10:45:44.536Z,101115.94
2022-10-01T10:48:31.788Z,101134.91
2022-10-01T10:51:02.043Z,101135.00
2022-10-01T10:53:39.695Z,101140.72
2022-10-01T10:56:16.092Z,101116.38
2022-10-01T10:58:45.219Z,101090.84
2022-10-01T11:01:41.791Z,101125.03
2022-10-01T11:04:43.073Z,101097.31
2022-10-01T11:07:35.571Z,101133.72
2022-10-01T11:10:28.863Z,101145.16
2022-10-01T11:13:20.846Z,101157.00
2022-10-01T11:16:00.762Z,101153.28
2022-10-01T11:18:39.371Z,101147.69
2022-10-01T11:21:15.290Z,101138.09
2022-10-01T11:24:08.559Z,101162.19
2022-10-01T11:27:13.244Z,101115.94
2022-10-01T11:30:05.603Z,101134.81
2022-10-01T11:32:53.918Z,101118.13
2022-10-01T11:35:55.508Z,101135.69
2022-10-01T11:38:57.571Z,101090.66
2022-10-01T11:42:06.584Z,101134.22
2022-10-01T11:45:07.571Z,101131.50
2022-10-01T11:48:06.905Z,101107.53
2022-10-01T11:50:42.956Z,101094.19
2022-10-01T11:53:22.644Z,101119.16
2022-10-01T11:56:18.586Z,101092.50
2022-10-01T11:58:51.146Z,101115.63
2022-10-01T12:01:46.700Z,101089.91
2022-10-01T12:05:05.636Z,101089.97
2022-10-01T12:08:07.152Z,101100.53
2022-10-01T12:11:01.241Z,101107.44
2022-10-01T12:13:36.716Z,101082.66
2022-10-01T12:16:42.677Z,101065.09
2022-10-01T12:19:28.589Z,101072.19
2022-10-01T12:22:16.174Z,101086.31
2022-10-01T12:25:03.638Z,101055.47
2022-10-01T12:28:12.584Z,101028.84
2022-10-01T12:31:20.059Z,101064.28
2022-10-01T12:33:51.256Z,101070.41
2022-10-01T12:36:37.449Z,101052.75
2022-10-01T12:40:01.673Z,101053.59
2022-10-01T12:42:48.458Z,101065.09
2022-10-01T12:45:19.915Z,101055.34
2022-10-01T12:48:22.688Z,101060.69
2022-10-01T12:51:26.750Z,101047.47
2022-10-01T12:54:45.913Z,101049.19
2022-10-01T12:57:51.401Z,101033.22
2022-10-01T13:00:40.691Z,101007.66
2022-10-01T13:04:20.624Z,101022.69
2022-10-01T13:07:23.069Z,101022.72
2022-10-01T13:10:02.249Z,101011.22
2022-10-01T13:12:38.186Z,100999.72
2022-10-01T13:15:10.790Z,100943.13
2022-10-01T13:17:50.219Z,100970.56
2022-10-01T13:20:51.734Z,100969.69
2022-10-01T13:23:47.641Z,100986.47
2022-10-01T13:26:47.896Z,100974.97
2022-10-01T13:29:35.257Z,100984.69
2022-10-01T13:32:04.676Z,100956.41
2022-10-01T13:34:39.433Z,100984.66
2022-10-01T13:37:29.836Z,100952.81
2022-10-01T13:40:00.964Z,100922.81
2022-10-01T13:42:31.393Z,100976.66
2022-10-01T13:45:03.256Z,100988.16
2022-10-01T13:47:32.339Z,100929.00
2022-10-01T13:50:18.072Z,100929.81
2022-10-01T13:52:59.642Z,100960.81
2022-10-01T13:56:00.665Z,100963.44
2022-10-01T13:59:03.683Z,100990.88
2022-10-01T14:01:44.492Z,100973.19
2022-10-01T14:04:28.642Z,100986.47
2022-10-01T14:07:24.906Z,100992.59
2022-10-01T14:10:14.677Z,100986.38
2022-10-01T14:13:34.674Z,100930.66
2022-10-01T14:16:16.898Z,100981.00
2022-10-01T14:18:47.722Z,100988.91
2022-10-01T14:21:46.139Z,100990.75
2022-10-01T14:25:10.672Z,100980.16
2022-10-01T14:28:37.674Z,100973.13
2022-10-01T14:31:24.340Z,100976.63
2022-10-01T14:33:57.153Z,100975.78
2022-10-01T14:36:48.706Z,100975.78
2022-10-01T14:39:49.652Z,100972.25
2022-10-01T14:42:30.358Z,100916.50
2022-10-01T14:44:57.189Z,100953.56
2022-10-01T14:47:27.923Z,100955.38
2022-10-01T14:49:55.417Z,100898.84
2022-10-01T14:52:44.692Z,100948.28
2022-10-01T14:55:26.294Z,100931.56
2022-10-01T14:57:56.953Z,100948.34
2022-10-01T15:00:30.634Z,100952.78
2022-10-01T15:03:17.849Z,100920.94
2022-10-01T15:05:47.358Z,100963.31
2022-10-01T15:08:15.576Z,100955.38
2022-10-01T15:10:56.231Z,100951.81
2022-10-01T15:13:47.674Z,100925.34
2022-10-01T15:16:49.752Z,100929.78
2022-10-01T15:19:31.281Z,100915.59
2022-10-01T15:22:00.974Z,100944.75
2022-10-01T15:24:55.729Z,100923.63
2022-10-01T15:27:56.799Z,100911.25
2022-10-01T15:30:57.711Z,100919.19
2022-10-01T15:33:56.591Z,100958.13
2022-10-01T15:36:23.519Z,100917.44
2022-10-01T15:38:51.018Z,100955.44
2022-10-01T15:41:31.916Z,100941.31
2022-10-01T15:44:03.419Z,100909.41
2022-10-01T15:46:33.390Z,100956.28
2022-10-01T15:49:24.417Z,100940.38
2022-10-01T15:52:19.458Z,100929.81
2022-10-01T15:54:47.527Z,100958.16
2022-10-01T15:57:33.612Z,100893.59
2022-10-01T16:00:00.771Z,100890.06
2022-10-01T16:02:31.848Z,100948.38
2022-10-01T16:05:06.793Z,100922.75
2022-10-01T16:07:35.454Z,100925.41
2022-10-01T16:10:41.733Z,100941.31
2022-10-01T16:13:49.766Z,100950.19
2022-10-01T16:16:30.582Z,100924.56
2022-10-01T16:18:58.870Z,100915.75
2022-10-01T16:21:26.943Z,100936.97
2022-10-01T16:24:13.851Z,100892.75
2022-10-01T16:27:14.760Z,100898.00
2022-10-01T16:30:36.766Z,100934.28
2022-10-01T16:33:37.766Z,100940.47
2022-10-01T16:36:38.801Z,100943.09
2022-10-01T16:39:19.378Z,100943.09
2022-10-01T16:42:01.328Z,100943.03
2022-10-01T16:44:35.324Z,100921.81
2022-10-01T16:47:02.223Z,100864.31
2022-10-01T16:49:29.326Z,100903.22
2022-10-01T16:51:56.568Z,100881.00
2022-10-01T16:54:26.600Z,100956.19
2022-10-01T16:56:55.376Z,100882.72
2022-10-01T16:59:23.915Z,100948.16
2022-10-01T17:02:10.845Z,100932.03
2022-10-01T17:05:11.767Z,100909.69
2022-10-01T17:07:54.018Z,100985.63
2022-10-01T17:10:23.576Z,100986.38
2022-10-01T17:12:51.095Z,100970.34
2022-10-01T17:15:23.284Z,101003.06
2022-10-01T17:17:50.439Z,100985.16
2022-10-01T17:20:40.812Z,100993.09
2022-10-01T17:23:42.754Z,100958.38
2022-10-01T17:26:35.436Z,100896.31
2022-10-01T17:29:02.645Z,100973.25
2022-10-01T17:31:30.451Z,100930.59
2022-10-01T17:33:57.816Z,100958.03
2022-10-01T17:36:24.806Z,100950.03
2022-10-01T17:38:51.965Z,100954.47
2022-10-01T17:41:38.802Z,100975.66
2022-10-01T17:44:39.818Z,101029.47
2022-10-01T17:47:41.114Z,100983.34
2022-10-01T17:50:21.389Z,101018.94
2022-10-01T17:52:49.169Z,101022.53
2022-10-01T17:55:35.854Z,100994.97
2022-10-01T17:58:16.482Z,101019.69
2022-10-01T18:01:03.863Z,100971.84
2022-10-01T18:04:06.874Z,101020.59
2022-10-01T18:06:49.118Z,100990.38
2022-10-01T18:09:16.019Z,101036.28
2022-10-01T18:11:43.018Z,101015.81
2022-10-01T18:14:30.841Z,101010.53
2022-10-01T18:17:32.156Z,101034.28
2022-10-01T18:20:12.486Z,101088.16
2022-10-01T18:22:59.816Z,100977.28
2022-10-01T18:25:42.951Z,101063.94
2022-10-01T18:28:09.864Z,100978.50
2022-10-01T18:30:36.960Z,101072.81
2022-10-01T18:33:04.053Z,101105.44
2022-10-01T18:35:33.291Z,101105.56
2022-10-01T18:38:07.997Z,101096.78
2022-10-01T18:40:56.846Z,101034.41
2022-10-01T18:43:57.871Z,101031.53
2022-10-01T18:47:30.829Z,101098.09
2022-10-01T18:50:35.712Z,101120.81
2022-10-01T18:53:24.116Z,101122.41
2022-10-01T18:56:35.004Z,101124.84
2022-10-01T18:59:22.131Z,100961.16
2022-10-01T19:02:26.878Z,101127.09
2022-10-01T19:05:52.843Z,101116.22
2022-10-01T19:08:58.636Z,101119.41
2022-10-01T19:12:07.861Z,101124.78
2022-10-01T19:15:18.840Z,101125.56
2022-10-01T19:19:02.894Z,101133.78
2022-10-01T19:22:16.908Z,101140.34
2022-10-01T19:26:13.861Z,101148.31
2022-10-01T19:29:00.479Z,101160.59
2022-10-01T19:31:57.812Z,101155.53
2022-10-01T19:34:58.911Z,101154.31
2022-10-01T19:37:51.544Z,101156.75
2022-10-01T19:40:28.126Z,101066.59
2022-10-01T19:43:24.594Z,101143.78
2022-10-01T19:46:37.106Z,101144.44
2022-10-01T19:49:41.975Z,101109.22
2022-10-01T19:52:45.873Z,101138.00
2022-10-01T19:55:49.891Z,101152.88
2022-10-01T19:58:33.714Z,101103.09
2022-10-01T20:01:03.878Z,101152.81
2022-10-01T20:03:46.999Z,101097.69
2022-10-01T20:06:52.879Z,101131.94
2022-10-01T20:09:39.529Z,101177.78
2022-10-01T20:12:48.886Z,101114.69
2022-10-01T20:15:52.674Z,101132.03
2022-10-01T20:18:20.925Z,101185.28
2022-10-01T20:20:56.601Z,101178.53
2022-10-01T20:24:02.905Z,101191.41
2022-10-01T20:26:50.753Z,101122.63
2022-10-01T20:29:56.922Z,101195.50
2022-10-01T20:33:00.900Z,101221.91
2022-10-01T20:36:00.769Z,101232.34
2022-10-01T20:38:52.936Z,101238.47
2022-10-01T20:42:00.949Z,101243.88
2022-10-01T20:45:01.915Z,101219.91
2022-10-01T20:47:50.240Z,101244.13
2022-10-01T20:50:45.974Z,101253.97
2022-10-01T20:54:08.909Z,101236.31
2022-10-01T20:56:55.496Z,101238.25
2022-10-01T20:59:37.868Z,101220.28
2022-10-01T21:02:39.931Z,101243.31
2022-10-01T21:05:39.321Z,101225.47
2022-10-01T21:08:38.113Z,101248.47
2022-10-01T21:11:20.511Z,101212.38
2022-10-01T21:14:21.870Z,101160.75
2022-10-01T21:17:17.931Z,101186.47
2022-10-01T21:20:17.255Z,101240.66
2022-10-01T21:23:06.926Z,101237.38
2022-10-01T21:26:34.184Z,101220.28
2022-10-01T21:29:46.907Z,101247.84
2022-10-01T21:33:18.038Z,101224.88
2022-10-01T21:36:14.544Z,101260.50
2022-10-01T21:39:38.966Z,101273.84
2022-10-01T21:42:36.720Z,101226.50
2022-10-01T21:45:20.828Z,101216.91
2022-10-01T21:48:06.259Z,101246.09
2022-10-01T21:51:21.926Z,101238.03
2022-10-01T21:54:15.266Z,101230.13
2022-10-01T21:57:03.967Z,101228.25
2022-10-01T22:00:07.952Z,101239.72
2022-10-01T22:03:25.974Z,101236.06
2022-10-01T22:06:58.985Z,101233.34
2022-10-01T22:09:46.998Z,101195.31
2022-10-01T22:12:15.341Z,101228.81
2022-10-01T22:14:45.668Z,101237.78
2022-10-01T22:17:17.741Z,101166.63
2022-10-01T22:20:06.963Z,101239.19
2022-10-01T22:22:52.237Z,101127.78
2022-10-01T22:25:19.755Z,101209.25
2022-10-01T22:28:01.191Z,101266.16
2022-10-01T22:30:33.785Z,101283.16
2022-10-01T22:33:26.012Z,101277.22
2022-10-01T22:36:15.793Z,101274.47
2022-10-01T22:38:48.541Z,101263.16
2022-10-01T22:41:40.426Z,101238.97
2022-10-01T22:44:20.465Z,101256.50
2022-10-01T22:46:47.324Z,101277.09
2022-10-01T22:49:32.487Z,101290.19
2022-10-01T22:52:29.922Z,101296.53
2022-10-01T22:55:03.029Z,101293.00
2022-10-01T22:58:37.973Z,101232.50
2022-10-01T23:01:54.041Z,101252.25
2022-10-01T23:05:27.335Z,101288.00
2022-10-01T23:08:09.561Z,101277.31
2022-10-01T23:10:55.211Z,101290.19
2022-10-01T23:13:53.995Z,101295.31
2022-10-01T23:16:52.354Z,101265.66
2022-10-01T23:19:50.519Z,101237.91
2022-10-01T23:22:55.012Z,101305.31
2022-10-01T23:25:50.996Z,101317.56
2022-10-01T23:28:56.303Z,101318.19
2022-10-01T23:31:32.783Z,101323.09
2022-10-01T23:34:18.641Z,101333.97
2022-10-01T23:37:10.012Z,101296.22
2022-10-01T23:40:14.003Z,101335.53
2022-10-01T23:43:41.003Z,101332.00
2022-10-01T23:46:29.698Z,101336.50
2022-10-01T23:49:05.228Z,101328.97
2022-10-01T23:51:40.559Z,101275.41
2022-10-01T23:54:19.333Z,101313.53
2022-10-01T23:57:24.039Z,101338.56
